Terminal Aerodrome Forecast
Issued by NWS

Home | Current Version | Previous Version | Text Only | Print | Product List | Glossary On
Versions: 1 2 3 4 5 6 7 8 9 10 11 12 13 14
000
FTUS46 KSTO 081723
TAFSAC
TAF
KSAC 081723Z 0818/0918 33006KT P6SM SKC
     FM091000 VRB03KT 4SM BR SKC
      TEMPO 0913/0917 1SM BR SCT002=

USA.gov is the U.S. government's official web portal to all federal, state and local government web resources and services.